sensor_id;sensor_type;location;lat;lon;timestamp;P1;durP1;ratioP1;P2;durP2;ratioP2
79284;SDS011;68734;50.452;11.636;2024-01-16T00:00:49;3.92;;;1.25;;
79284;SDS011;68734;50.452;11.636;2024-01-16T00:03:15;4.88;;;1.20;;
79284;SDS011;68734;50.452;11.636;2024-01-16T00:05:40;3.10;;;1.60;;
79284;SDS011;68734;50.452;11.636;2024-01-16T00:08:06;4.85;;;2.50;;
79284;SDS011;68734;50.452;11.636;2024-01-16T00:10:31;5.22;;;1.83;;
79284;SDS011;68734;50.452;11.636;2024-01-16T00:12:59;5.25;;;2.10;;
79284;SDS011;68734;50.452;11.636;2024-01-16T00:15:24;4.10;;;2.15;;
79284;SDS011;68734;50.452;11.636;2024-01-16T00:17:50;1.23;;;1.10;;
79284;SDS011;68734;50.452;11.636;2024-01-16T00:20:16;6.57;;;1.38;;
79284;SDS011;68734;50.452;11.636;2024-01-16T00:22:42;1.63;;;1.30;;
79284;SDS011;68734;50.452;11.636;2024-01-16T00:25:07;1.35;;;1.25;;
79284;SDS011;68734;50.452;11.636;2024-01-16T00:27:33;3.20;;;1.48;;
79284;SDS011;68734;50.452;11.636;2024-01-16T00:29:58;2.03;;;1.23;;
79284;SDS011;68734;50.452;11.636;2024-01-16T00:32:23;3.45;;;1.33;;
79284;SDS011;68734;50.452;11.636;2024-01-16T00:34:51;1.65;;;1.30;;
79284;SDS011;68734;50.452;11.636;2024-01-16T00:37:19;1.45;;;1.17;;
79284;SDS011;68734;50.452;11.636;2024-01-16T00:39:45;2.05;;;1.30;;
79284;SDS011;68734;50.452;11.636;2024-01-16T00:42:13;3.75;;;1.35;;
79284;SDS011;68734;50.452;11.636;2024-01-16T00:44:41;2.00;;;1.23;;
79284;SDS011;68734;50.452;11.636;2024-01-16T00:47:06;1.83;;;1.30;;
79284;SDS011;68734;50.452;11.636;2024-01-16T00:49:32;2.53;;;1.55;;
79284;SDS011;68734;50.452;11.636;2024-01-16T00:51:57;5.05;;;1.42;;
79284;SDS011;68734;50.452;11.636;2024-01-16T00:54:25;2.80;;;1.40;;
79284;SDS011;68734;50.452;11.636;2024-01-16T00:56:50;2.83;;;1.15;;
79284;SDS011;68734;50.452;11.636;2024-01-16T00:59:20;3.28;;;1.20;;
79284;SDS011;68734;50.452;11.636;2024-01-16T01:01:46;4.55;;;1.45;;
79284;SDS011;68734;50.452;11.636;2024-01-16T01:04:11;2.38;;;1.40;;
79284;SDS011;68734;50.452;11.636;2024-01-16T01:06:44;3.47;;;1.33;;
79284;SDS011;68734;50.452;11.636;2024-01-16T01:09:10;2.00;;;1.45;;
79284;SDS011;68734;50.452;11.636;2024-01-16T01:11:38;2.50;;;1.23;;
79284;SDS011;68734;50.452;11.636;2024-01-16T01:14:04;2.63;;;1.50;;
79284;SDS011;68734;50.452;11.636;2024-01-16T01:16:30;1.83;;;1.30;;
79284;SDS011;68734;50.452;11.636;2024-01-16T01:18:58;1.35;;;1.20;;
79284;SDS011;68734;50.452;11.636;2024-01-16T01:21:23;2.67;;;1.60;;
79284;SDS011;68734;50.452;11.636;2024-01-16T01:23:49;1.75;;;1.25;;
79284;SDS011;68734;50.452;11.636;2024-01-16T01:26:14;12.75;;;6.50;;
79284;SDS011;68734;50.452;11.636;2024-01-16T01:28:42;3.72;;;2.40;;
79284;SDS011;68734;50.452;11.636;2024-01-16T01:31:09;2.22;;;2.03;;
79284;SDS011;68734;50.452;11.636;2024-01-16T01:33:37;3.17;;;1.80;;
79284;SDS011;68734;50.452;11.636;2024-01-16T01:36:04;1.98;;;1.38;;
79284;SDS011;68734;50.452;11.636;2024-01-16T01:38:29;6.65;;;1.45;;
79284;SDS011;68734;50.452;11.636;2024-01-16T01:40:57;3.85;;;1.58;;
79284;SDS011;68734;50.452;11.636;2024-01-16T01:43:23;1.10;;;1.00;;
79284;SDS011;68734;50.452;11.636;2024-01-16T01:45:56;5.55;;;1.75;;
79284;SDS011;68734;50.452;11.636;2024-01-16T01:48:41;3.92;;;1.40;;
79284;SDS011;68734;50.452;11.636;2024-01-16T01:51:12;2.05;;;1.58;;
79284;SDS011;68734;50.452;11.636;2024-01-16T01:53:38;1.98;;;1.17;;
79284;SDS011;68734;50.452;11.636;2024-01-16T01:56:08;3.70;;;1.33;;
79284;SDS011;68734;50.452;11.636;2024-01-16T01:58:36;1.63;;;1.10;;
79284;SDS011;68734;50.452;11.636;2024-01-16T02:01:07;5.35;;;1.90;;
79284;SDS011;68734;50.452;11.636;2024-01-16T02:03:35;3.47;;;1.80;;
79284;SDS011;68734;50.452;11.636;2024-01-16T02:06:05;2.95;;;1.10;;
79284;SDS011;68734;50.452;11.636;2024-01-16T02:08:33;1.90;;;1.20;;
79284;SDS011;68734;50.452;11.636;2024-01-16T02:11:02;2.85;;;1.38;;
79284;SDS011;68734;50.452;11.636;2024-01-16T02:13:27;5.53;;;1.38;;
79284;SDS011;68734;50.452;11.636;2024-01-16T02:15:56;2.17;;;1.35;;
79284;SDS011;68734;50.452;11.636;2024-01-16T02:18:23;4.93;;;1.70;;
79284;SDS011;68734;50.452;11.636;2024-01-16T02:20:49;4.88;;;1.55;;
79284;SDS011;68734;50.452;11.636;2024-01-16T02:23:15;2.05;;;1.20;;
79284;SDS011;68734;50.452;11.636;2024-01-16T02:25:43;1.50;;;1.02;;
79284;SDS011;68734;50.452;11.636;2024-01-16T02:28:09;3.15;;;1.70;;
79284;SDS011;68734;50.452;11.636;2024-01-16T02:30:37;1.60;;;1.00;;
79284;SDS011;68734;50.452;11.636;2024-01-16T02:33:03;1.83;;;1.27;;
79284;SDS011;68734;50.452;11.636;2024-01-16T02:35:28;2.15;;;1.35;;
79284;SDS011;68734;50.452;11.636;2024-01-16T02:37:54;2.72;;;1.13;;
79284;SDS011;68734;50.452;11.636;2024-01-16T02:40:19;1.45;;;0.90;;
79284;SDS011;68734;50.452;11.636;2024-01-16T02:42:45;1.92;;;1.52;;
79284;SDS011;68734;50.452;11.636;2024-01-16T02:45:10;3.92;;;1.15;;
79284;SDS011;68734;50.452;11.636;2024-01-16T02:47:38;1.23;;;0.88;;
79284;SDS011;68734;50.452;11.636;2024-01-16T02:50:04;1.42;;;1.13;;
79284;SDS011;68734;50.452;11.636;2024-01-16T02:52:30;1.40;;;1.30;;
79284;SDS011;68734;50.452;11.636;2024-01-16T02:54:55;1.73;;;1.25;;
79284;SDS011;68734;50.452;11.636;2024-01-16T02:57:21;3.15;;;1.20;;
79284;SDS011;68734;50.452;11.636;2024-01-16T02:59:46;1.15;;;0.98;;
79284;SDS011;68734;50.452;11.636;2024-01-16T03:02:14;4.50;;;1.30;;
79284;SDS011;68734;50.452;11.636;2024-01-16T03:04:42;1.40;;;1.15;;
79284;SDS011;68734;50.452;11.636;2024-01-16T03:07:10;1.63;;;1.20;;
79284;SDS011;68734;50.452;11.636;2024-01-16T03:09:35;6.32;;;1.10;;
79284;SDS011;68734;50.452;11.636;2024-01-16T03:12:01;5.63;;;1.50;;
79284;SDS011;68734;50.452;11.636;2024-01-16T03:14:27;2.63;;;1.25;;
79284;SDS011;68734;50.452;11.636;2024-01-16T03:16:53;1.00;;;0.80;;
79284;SDS011;68734;50.452;11.636;2024-01-16T03:19:18;1.55;;;0.90;;
79284;SDS011;68734;50.452;11.636;2024-01-16T03:21:44;2.97;;;1.90;;
79284;SDS011;68734;50.452;11.636;2024-01-16T03:24:09;1.98;;;1.65;;
79284;SDS011;68734;50.452;11.636;2024-01-16T03:26:37;3.22;;;2.72;;
79284;SDS011;68734;50.452;11.636;2024-01-16T03:29:03;3.08;;;2.25;;
79284;SDS011;68734;50.452;11.636;2024-01-16T03:31:31;1.45;;;0.82;;
79284;SDS011;68734;50.452;11.636;2024-01-16T03:33:56;2.33;;;1.25;;
79284;SDS011;68734;50.452;11.636;2024-01-16T03:36:22;2.03;;;1.25;;
79284;SDS011;68734;50.452;11.636;2024-01-16T03:38:48;3.00;;;1.13;;
79284;SDS011;68734;50.452;11.636;2024-01-16T03:41:13;1.20;;;0.80;;
79284;SDS011;68734;50.452;11.636;2024-01-16T03:43:39;1.80;;;1.20;;
79284;SDS011;68734;50.452;11.636;2024-01-16T03:46:10;2.60;;;1.20;;
79284;SDS011;68734;50.452;11.636;2024-01-16T03:48:38;3.17;;;1.65;;
79284;SDS011;68734;50.452;11.636;2024-01-16T03:51:06;3.83;;;1.77;;
79284;SDS011;68734;50.452;11.636;2024-01-16T03:53:32;1.98;;;1.25;;
79284;SDS011;68734;50.452;11.636;2024-01-16T03:56:00;1.30;;;1.17;;
79284;SDS011;68734;50.452;11.636;2024-01-16T03:58:25;1.35;;;1.00;;
79284;SDS011;68734;50.452;11.636;2024-01-16T04:00:50;2.28;;;1.33;;
79284;SDS011;68734;50.452;11.636;2024-01-16T04:03:18;2.67;;;1.00;;
79284;SDS011;68734;50.452;11.636;2024-01-16T04:05:43;3.05;;;1.63;;
79284;SDS011;68734;50.452;11.636;2024-01-16T04:08:11;2.28;;;1.15;;
79284;SDS011;68734;50.452;11.636;2024-01-16T04:10:37;3.22;;;0.93;;
79284;SDS011;68734;50.452;11.636;2024-01-16T04:13:05;2.28;;;1.23;;
79284;SDS011;68734;50.452;11.636;2024-01-16T04:15:31;2.00;;;1.60;;
79284;SDS011;68734;50.452;11.636;2024-01-16T04:17:56;4.43;;;2.63;;
79284;SDS011;68734;50.452;11.636;2024-01-16T04:20:22;3.28;;;1.48;;
79284;SDS011;68734;50.452;11.636;2024-01-16T04:22:50;1.92;;;1.42;;
79284;SDS011;68734;50.452;11.636;2024-01-16T04:25:15;5.88;;;1.20;;
79284;SDS011;68734;50.452;11.636;2024-01-16T04:27:41;2.50;;;1.17;;
79284;SDS011;68734;50.452;11.636;2024-01-16T04:30:06;1.33;;;1.00;;
79284;SDS011;68734;50.452;11.636;2024-01-16T04:32:32;1.98;;;1.52;;
79284;SDS011;68734;50.452;11.636;2024-01-16T04:34:58;2.53;;;1.08;;
79284;SDS011;68734;50.452;11.636;2024-01-16T04:37:23;1.83;;;1.40;;
79284;SDS011;68734;50.452;11.636;2024-01-16T04:39:49;8.82;;;1.40;;
79284;SDS011;68734;50.452;11.636;2024-01-16T04:42:14;3.25;;;1.38;;
79284;SDS011;68734;50.452;11.636;2024-01-16T04:44:42;3.40;;;1.10;;
79284;SDS011;68734;50.452;11.636;2024-01-16T04:47:10;3.22;;;1.40;;
79284;SDS011;68734;50.452;11.636;2024-01-16T04:49:36;0.85;;;0.73;;
79284;SDS011;68734;50.452;11.636;2024-01-16T04:52:02;1.52;;;1.08;;
79284;SDS011;68734;50.452;11.636;2024-01-16T04:54:28;5.63;;;1.30;;
79284;SDS011;68734;50.452;11.636;2024-01-16T04:56:53;2.85;;;0.90;;
79284;SDS011;68734;50.452;11.636;2024-01-16T04:59:19;2.95;;;1.15;;
79284;SDS011;68734;50.452;11.636;2024-01-16T05:01:45;1.20;;;1.00;;
79284;SDS011;68734;50.452;11.636;2024-01-16T05:04:13;2.45;;;0.77;;
79284;SDS011;68734;50.452;11.636;2024-01-16T05:06:40;3.63;;;0.90;;
79284;SDS011;68734;50.452;11.636;2024-01-16T05:09:06;3.63;;;1.25;;
79284;SDS011;68734;50.452;11.636;2024-01-16T05:11:31;2.75;;;1.17;;
79284;SDS011;68734;50.452;11.636;2024-01-16T05:13:57;5.07;;;1.15;;
79284;SDS011;68734;50.452;11.636;2024-01-16T05:16:26;1.83;;;1.10;;
79284;SDS011;68734;50.452;11.636;2024-01-16T05:18:52;2.97;;;1.02;;
79284;SDS011;68734;50.452;11.636;2024-01-16T05:21:19;3.45;;;0.93;;
79284;SDS011;68734;50.452;11.636;2024-01-16T05:23:45;1.77;;;1.00;;
79284;SDS011;68734;50.452;11.636;2024-01-16T05:26:10;2.55;;;1.60;;
79284;SDS011;68734;50.452;11.636;2024-01-16T05:28:38;2.67;;;1.33;;
79284;SDS011;68734;50.452;11.636;2024-01-16T05:31:07;2.80;;;1.10;;
79284;SDS011;68734;50.452;11.636;2024-01-16T05:33:32;2.30;;;1.35;;
79284;SDS011;68734;50.452;11.636;2024-01-16T05:36:00;4.53;;;1.13;;
79284;SDS011;68734;50.452;11.636;2024-01-16T05:38:27;2.65;;;1.45;;
79284;SDS011;68734;50.452;11.636;2024-01-16T05:40:52;3.20;;;1.25;;
79284;SDS011;68734;50.452;11.636;2024-01-16T05:43:18;2.25;;;1.10;;
79284;SDS011;68734;50.452;11.636;2024-01-16T05:45:43;2.05;;;1.20;;
79284;SDS011;68734;50.452;11.636;2024-01-16T05:48:11;3.70;;;1.20;;
79284;SDS011;68734;50.452;11.636;2024-01-16T05:50:37;1.85;;;1.20;;
79284;SDS011;68734;50.452;11.636;2024-01-16T05:53:02;1.23;;;1.00;;
79284;SDS011;68734;50.452;11.636;2024-01-16T05:55:31;2.53;;;1.42;;
79284;SDS011;68734;50.452;11.636;2024-01-16T05:57:57;1.33;;;1.10;;
79284;SDS011;68734;50.452;11.636;2024-01-16T06:00:24;2.75;;;1.20;;
79284;SDS011;68734;50.452;11.636;2024-01-16T06:02:50;1.05;;;0.73;;
79284;SDS011;68734;50.452;11.636;2024-01-16T06:05:15;2.83;;;1.25;;
79284;SDS011;68734;50.452;11.636;2024-01-16T06:07:41;3.88;;;1.38;;
79284;SDS011;68734;50.452;11.636;2024-01-16T06:10:06;2.00;;;1.20;;
79284;SDS011;68734;50.452;11.636;2024-01-16T06:12:32;1.20;;;1.00;;
79284;SDS011;68734;50.452;11.636;2024-01-16T06:14:59;4.40;;;1.48;;
79284;SDS011;68734;50.452;11.636;2024-01-16T06:17:24;4.35;;;2.25;;
79284;SDS011;68734;50.452;11.636;2024-01-16T06:19:50;4.05;;;1.52;;
79284;SDS011;68734;50.452;11.636;2024-01-16T06:22:15;2.47;;;1.23;;
79284;SDS011;68734;50.452;11.636;2024-01-16T06:24:40;2.92;;;1.10;;
79284;SDS011;68734;50.452;11.636;2024-01-16T06:27:06;1.38;;;1.02;;
79284;SDS011;68734;50.452;11.636;2024-01-16T06:29:32;4.78;;;1.83;;
79284;SDS011;68734;50.452;11.636;2024-01-16T06:31:57;1.60;;;1.17;;
79284;SDS011;68734;50.452;11.636;2024-01-16T06:34:23;1.30;;;0.93;;
79284;SDS011;68734;50.452;11.636;2024-01-16T06:39:14;4.33;;;1.37;;
79284;SDS011;68734;50.452;11.636;2024-01-16T06:41:40;2.17;;;1.23;;
79284;SDS011;68734;50.452;11.636;2024-01-16T06:44:06;5.35;;;1.67;;
79284;SDS011;68734;50.452;11.636;2024-01-16T06:48:57;3.15;;;1.27;;
79284;SDS011;68734;50.452;11.636;2024-01-16T06:51:22;3.25;;;1.58;;
79284;SDS011;68734;50.452;11.636;2024-01-16T06:53:48;2.08;;;1.30;;
79284;SDS011;68734;50.452;11.636;2024-01-16T06:56:13;3.28;;;1.63;;
79284;SDS011;68734;50.452;11.636;2024-01-16T06:58:39;3.65;;;1.63;;
79284;SDS011;68734;50.452;11.636;2024-01-16T07:01:04;3.70;;;2.13;;
79284;SDS011;68734;50.452;11.636;2024-01-16T07:03:33;3.80;;;1.70;;
79284;SDS011;68734;50.452;11.636;2024-01-16T07:05:59;3.78;;;1.88;;
79284;SDS011;68734;50.452;11.636;2024-01-16T07:08:24;4.20;;;1.77;;
79284;SDS011;68734;50.452;11.636;2024-01-16T07:10:52;3.25;;;1.83;;
79284;SDS011;68734;50.452;11.636;2024-01-16T07:13:21;3.13;;;1.95;;
79284;SDS011;68734;50.452;11.636;2024-01-16T07:15:47;10.32;;;2.40;;
79284;SDS011;68734;50.452;11.636;2024-01-16T07:18:13;2.53;;;1.77;;
79284;SDS011;68734;50.452;11.636;2024-01-16T07:20:39;4.90;;;1.85;;
79284;SDS011;68734;50.452;11.636;2024-01-16T07:23:04;5.18;;;1.50;;
79284;SDS011;68734;50.452;11.636;2024-01-16T07:25:30;5.22;;;1.90;;
79284;SDS011;68734;50.452;11.636;2024-01-16T07:27:56;3.50;;;2.05;;
79284;SDS011;68734;50.452;11.636;2024-01-16T07:30:23;7.13;;;2.50;;
79284;SDS011;68734;50.452;11.636;2024-01-16T07:32:49;2.92;;;2.42;;
79284;SDS011;68734;50.452;11.636;2024-01-16T07:35:16;4.00;;;2.40;;
79284;SDS011;68734;50.452;11.636;2024-01-16T07:37:41;4.53;;;2.38;;
79284;SDS011;68734;50.452;11.636;2024-01-16T07:40:08;2.05;;;1.70;;
79284;SDS011;68734;50.452;11.636;2024-01-16T07:42:34;6.50;;;3.33;;
79284;SDS011;68734;50.452;11.636;2024-01-16T07:45:03;6.13;;;2.70;;
79284;SDS011;68734;50.452;11.636;2024-01-16T07:47:31;3.60;;;2.80;;
79284;SDS011;68734;50.452;11.636;2024-01-16T07:49:58;7.20;;;2.92;;
79284;SDS011;68734;50.452;11.636;2024-01-16T07:52:23;3.15;;;1.90;;
79284;SDS011;68734;50.452;11.636;2024-01-16T07:54:51;4.50;;;2.17;;
79284;SDS011;68734;50.452;11.636;2024-01-16T07:57:17;3.63;;;3.03;;
79284;SDS011;68734;50.452;11.636;2024-01-16T07:59:42;7.68;;;2.85;;
79284;SDS011;68734;50.452;11.636;2024-01-16T08:02:07;4.93;;;2.17;;
79284;SDS011;68734;50.452;11.636;2024-01-16T08:04:34;5.32;;;2.53;;
79284;SDS011;68734;50.452;11.636;2024-01-16T08:07:00;3.05;;;2.13;;
79284;SDS011;68734;50.452;11.636;2024-01-16T08:09:25;3.72;;;2.42;;
79284;SDS011;68734;50.452;11.636;2024-01-16T08:11:51;8.40;;;2.35;;
79284;SDS011;68734;50.452;11.636;2024-01-16T08:14:24;2.92;;;1.85;;
79284;SDS011;68734;50.452;11.636;2024-01-16T08:16:50;2.92;;;2.10;;
79284;SDS011;68734;50.452;11.636;2024-01-16T08:19:16;6.47;;;2.55;;
79284;SDS011;68734;50.452;11.636;2024-01-16T08:21:41;3.30;;;2.05;;
79284;SDS011;68734;50.452;11.636;2024-01-16T08:24:07;4.30;;;2.22;;
79284;SDS011;68734;50.452;11.636;2024-01-16T08:26:32;5.10;;;2.17;;
79284;SDS011;68734;50.452;11.636;2024-01-16T08:28:58;1.90;;;1.55;;
79284;SDS011;68734;50.452;11.636;2024-01-16T08:31:23;3.20;;;1.83;;
79284;SDS011;68734;50.452;11.636;2024-01-16T08:33:49;3.85;;;2.00;;
79284;SDS011;68734;50.452;11.636;2024-01-16T08:36:14;5.55;;;2.20;;
79284;SDS011;68734;50.452;11.636;2024-01-16T08:38:40;10.50;;;4.78;;
79284;SDS011;68734;50.452;11.636;2024-01-16T08:41:05;10.35;;;6.90;;
79284;SDS011;68734;50.452;11.636;2024-01-16T08:43:34;4.20;;;3.25;;
79284;SDS011;68734;50.452;11.636;2024-01-16T08:46:00;6.53;;;3.30;;
79284;SDS011;68734;50.452;11.636;2024-01-16T08:48:26;8.30;;;3.08;;
79284;SDS011;68734;50.452;11.636;2024-01-16T08:50:52;4.20;;;3.05;;
79284;SDS011;68734;50.452;11.636;2024-01-16T08:53:19;4.47;;;2.83;;
79284;SDS011;68734;50.452;11.636;2024-01-16T08:55:44;6.30;;;2.42;;
79284;SDS011;68734;50.452;11.636;2024-01-16T08:58:10;5.63;;;2.47;;
79284;SDS011;68734;50.452;11.636;2024-01-16T09:00:35;5.25;;;2.65;;
79284;SDS011;68734;50.452;11.636;2024-01-16T09:03:02;2.90;;;2.28;;
79284;SDS011;68734;50.452;11.636;2024-01-16T09:05:29;7.95;;;2.67;;
79284;SDS011;68734;50.452;11.636;2024-01-16T09:07:54;6.70;;;2.72;;
79284;SDS011;68734;50.452;11.636;2024-01-16T09:10:19;3.50;;;2.92;;
79284;SDS011;68734;50.452;11.636;2024-01-16T09:12:45;5.22;;;2.70;;
79284;SDS011;68734;50.452;11.636;2024-01-16T09:15:10;5.38;;;2.72;;
79284;SDS011;68734;50.452;11.636;2024-01-16T09:17:36;9.48;;;3.53;;
79284;SDS011;68734;50.452;11.636;2024-01-16T09:20:01;8.20;;;3.40;;
79284;SDS011;68734;50.452;11.636;2024-01-16T09:22:28;6.85;;;3.63;;
79284;SDS011;68734;50.452;11.636;2024-01-16T09:24:53;4.90;;;3.30;;
79284;SDS011;68734;50.452;11.636;2024-01-16T09:27:19;9.07;;;3.63;;
79284;SDS011;68734;50.452;11.636;2024-01-16T09:29:44;9.15;;;3.25;;
79284;SDS011;68734;50.452;11.636;2024-01-16T09:32:10;4.72;;;3.63;;
79284;SDS011;68734;50.452;11.636;2024-01-16T09:34:35;7.20;;;5.00;;
79284;SDS011;68734;50.452;11.636;2024-01-16T09:37:01;8.15;;;3.30;;
79284;SDS011;68734;50.452;11.636;2024-01-16T09:39:28;8.40;;;2.85;;
79284;SDS011;68734;50.452;11.636;2024-01-16T09:41:56;6.20;;;2.92;;
79284;SDS011;68734;50.452;11.636;2024-01-16T09:44:26;6.93;;;3.53;;
79284;SDS011;68734;50.452;11.636;2024-01-16T09:46:55;4.60;;;2.90;;
79284;SDS011;68734;50.452;11.636;2024-01-16T09:49:23;4.32;;;2.53;;
79284;SDS011;68734;50.452;11.636;2024-01-16T09:51:49;5.38;;;2.47;;
79284;SDS011;68734;50.452;11.636;2024-01-16T09:54:14;3.35;;;2.50;;
79284;SDS011;68734;50.452;11.636;2024-01-16T09:56:43;3.10;;;2.60;;
79284;SDS011;68734;50.452;11.636;2024-01-16T09:59:11;5.72;;;2.80;;
79284;SDS011;68734;50.452;11.636;2024-01-16T10:01:41;4.53;;;2.55;;
79284;SDS011;68734;50.452;11.636;2024-01-16T10:04:08;4.95;;;3.03;;
79284;SDS011;68734;50.452;11.636;2024-01-16T10:06:34;2.22;;;1.60;;
79284;SDS011;68734;50.452;11.636;2024-01-16T10:09:02;4.65;;;2.67;;
79284;SDS011;68734;50.452;11.636;2024-01-16T10:11:27;4.95;;;2.55;;
79284;SDS011;68734;50.452;11.636;2024-01-16T10:13:54;3.00;;;2.53;;
79284;SDS011;68734;50.452;11.636;2024-01-16T10:16:21;7.20;;;3.10;;
79284;SDS011;68734;50.452;11.636;2024-01-16T10:18:47;4.05;;;2.30;;
79284;SDS011;68734;50.452;11.636;2024-01-16T10:21:19;6.57;;;2.50;;
79284;SDS011;68734;50.452;11.636;2024-01-16T10:23:47;6.75;;;2.70;;
79284;SDS011;68734;50.452;11.636;2024-01-16T10:26:12;14.43;;;5.28;;
79284;SDS011;68734;50.452;11.636;2024-01-16T10:28:40;5.88;;;3.35;;
79284;SDS011;68734;50.452;11.636;2024-01-16T10:31:08;7.70;;;2.97;;
79284;SDS011;68734;50.452;11.636;2024-01-16T10:33:38;3.72;;;2.33;;
79284;SDS011;68734;50.452;11.636;2024-01-16T10:38:44;2.78;;;2.45;;
79284;SDS011;68734;50.452;11.636;2024-01-16T10:43:42;5.35;;;1.92;;
79284;SDS011;68734;50.452;11.636;2024-01-16T10:46:15;2.90;;;2.20;;
79284;SDS011;68734;50.452;11.636;2024-01-16T10:48:42;3.03;;;1.90;;
79284;SDS011;68734;50.452;11.636;2024-01-16T10:51:15;5.60;;;2.65;;
79284;SDS011;68734;50.452;11.636;2024-01-16T10:53:44;5.72;;;3.00;;
79284;SDS011;68734;50.452;11.636;2024-01-16T10:56:13;4.88;;;2.38;;
79284;SDS011;68734;50.452;11.636;2024-01-16T10:58:43;4.22;;;1.63;;
79284;SDS011;68734;50.452;11.636;2024-01-16T11:01:12;4.22;;;2.03;;
79284;SDS011;68734;50.452;11.636;2024-01-16T11:03:49;11.57;;;2.63;;
79284;SDS011;68734;50.452;11.636;2024-01-16T11:06:16;3.13;;;1.92;;
79284;SDS011;68734;50.452;11.636;2024-01-16T11:08:45;5.15;;;3.22;;
79284;SDS011;68734;50.452;11.636;2024-01-16T11:11:12;4.47;;;2.92;;
79284;SDS011;68734;50.452;11.636;2024-01-16T11:13:38;3.97;;;2.60;;
79284;SDS011;68734;50.452;11.636;2024-01-16T11:16:05;5.03;;;2.95;;
79284;SDS011;68734;50.452;11.636;2024-01-16T11:18:32;7.85;;;2.65;;
79284;SDS011;68734;50.452;11.636;2024-01-16T11:21:08;5.47;;;3.42;;
79284;SDS011;68734;50.452;11.636;2024-01-16T11:23:36;4.25;;;3.10;;
79284;SDS011;68734;50.452;11.636;2024-01-16T11:26:24;8.88;;;3.22;;
79284;SDS011;68734;50.452;11.636;2024-01-16T11:28:55;7.65;;;3.22;;
79284;SDS011;68734;50.452;11.636;2024-01-16T11:31:27;7.53;;;2.97;;
79284;SDS011;68734;50.452;11.636;2024-01-16T11:33:57;5.68;;;3.78;;
79284;SDS011;68734;50.452;11.636;2024-01-16T11:39:17;7.00;;;4.10;;
79284;SDS011;68734;50.452;11.636;2024-01-16T11:41:59;8.27;;;4.80;;
79284;SDS011;68734;50.452;11.636;2024-01-16T11:47:19;7.28;;;4.57;;
79284;SDS011;68734;50.452;11.636;2024-01-16T11:49:46;6.72;;;4.63;;
79284;SDS011;68734;50.452;11.636;2024-01-16T11:52:12;11.07;;;4.68;;
79284;SDS011;68734;50.452;11.636;2024-01-16T11:54:39;8.13;;;5.15;;
79284;SDS011;68734;50.452;11.636;2024-01-16T12:02:48;8.68;;;4.18;;
79284;SDS011;68734;50.452;11.636;2024-01-16T12:05:31;6.00;;;3.47;;
79284;SDS011;68734;50.452;11.636;2024-01-16T12:07:57;7.30;;;3.70;;
79284;SDS011;68734;50.452;11.636;2024-01-16T12:10:23;7.10;;;3.33;;
79284;SDS011;68734;50.452;11.636;2024-01-16T12:12:50;5.97;;;3.22;;
79284;SDS011;68734;50.452;11.636;2024-01-16T12:17:54;5.97;;;3.30;;
79284;SDS011;68734;50.452;11.636;2024-01-16T12:20:21;5.38;;;2.95;;
79284;SDS011;68734;50.452;11.636;2024-01-16T12:22:58;6.82;;;3.45;;
79284;SDS011;68734;50.452;11.636;2024-01-16T12:25:29;5.85;;;3.28;;
79284;SDS011;68734;50.452;11.636;2024-01-16T12:30:30;7.75;;;3.15;;
79284;SDS011;68734;50.452;11.636;2024-01-16T12:33:05;8.65;;;3.15;;
79284;SDS011;68734;50.452;11.636;2024-01-16T12:38:07;3.97;;;3.30;;
79284;SDS011;68734;50.452;11.636;2024-01-16T12:40:48;6.28;;;3.35;;
79284;SDS011;68734;50.452;11.636;2024-01-16T12:43:17;5.10;;;2.85;;
79284;SDS011;68734;50.452;11.636;2024-01-16T12:45:43;5.68;;;4.38;;
79284;SDS011;68734;50.452;11.636;2024-01-16T12:48:09;5.78;;;3.30;;
79284;SDS011;68734;50.452;11.636;2024-01-16T12:50:35;4.68;;;2.80;;
79284;SDS011;68734;50.452;11.636;2024-01-16T12:55:28;5.93;;;3.05;;
79284;SDS011;68734;50.452;11.636;2024-01-16T13:00:43;3.90;;;2.65;;
79284;SDS011;68734;50.452;11.636;2024-01-16T13:03:14;7.30;;;3.35;;
79284;SDS011;68734;50.452;11.636;2024-01-16T13:05:43;6.72;;;3.53;;
79284;SDS011;68734;50.452;11.636;2024-01-16T13:08:21;5.75;;;2.88;;
79284;SDS011;68734;50.452;11.636;2024-01-16T13:11:05;4.30;;;2.58;;
79284;SDS011;68734;50.452;11.636;2024-01-16T13:13:32;6.95;;;3.38;;
79284;SDS011;68734;50.452;11.636;2024-01-16T13:15:58;3.55;;;2.05;;
79284;SDS011;68734;50.452;11.636;2024-01-16T13:18:25;4.57;;;2.75;;
79284;SDS011;68734;50.452;11.636;2024-01-16T13:20:57;7.95;;;2.80;;
79284;SDS011;68734;50.452;11.636;2024-01-16T13:23:24;5.82;;;3.20;;
79284;SDS011;68734;50.452;11.636;2024-01-16T13:25:50;4.38;;;3.03;;
79284;SDS011;68734;50.452;11.636;2024-01-16T13:28:16;4.68;;;2.83;;
79284;SDS011;68734;50.452;11.636;2024-01-16T13:30:45;6.53;;;3.85;;
79284;SDS011;68734;50.452;11.636;2024-01-16T13:33:11;5.25;;;2.85;;
79284;SDS011;68734;50.452;11.636;2024-01-16T13:35:38;5.93;;;3.28;;
79284;SDS011;68734;50.452;11.636;2024-01-16T13:38:07;7.22;;;3.38;;
79284;SDS011;68734;50.452;11.636;2024-01-16T13:40:36;4.93;;;2.40;;
79284;SDS011;68734;50.452;11.636;2024-01-16T13:43:04;8.20;;;3.20;;
79284;SDS011;68734;50.452;11.636;2024-01-16T13:45:33;5.43;;;2.80;;
79284;SDS011;68734;50.452;11.636;2024-01-16T13:48:01;8.43;;;3.08;;
79284;SDS011;68734;50.452;11.636;2024-01-16T13:50:27;5.85;;;3.58;;
79284;SDS011;68734;50.452;11.636;2024-01-16T13:52:56;6.18;;;4.35;;
79284;SDS011;68734;50.452;11.636;2024-01-16T13:55:21;10.68;;;3.65;;
79284;SDS011;68734;50.452;11.636;2024-01-16T13:57:47;6.80;;;3.47;;
79284;SDS011;68734;50.452;11.636;2024-01-16T14:00:15;6.50;;;3.40;;
79284;SDS011;68734;50.452;11.636;2024-01-16T14:02:42;5.43;;;3.05;;
79284;SDS011;68734;50.452;11.636;2024-01-16T14:05:09;5.03;;;3.63;;
79284;SDS011;68734;50.452;11.636;2024-01-16T14:07:36;6.85;;;3.63;;
79284;SDS011;68734;50.452;11.636;2024-01-16T14:10:04;7.75;;;3.40;;
79284;SDS011;68734;50.452;11.636;2024-01-16T14:12:34;6.82;;;3.42;;
79284;SDS011;68734;50.452;11.636;2024-01-16T14:15:00;7.43;;;3.63;;
79284;SDS011;68734;50.452;11.636;2024-01-16T14:17:29;6.20;;;3.75;;
79284;SDS011;68734;50.452;11.636;2024-01-16T14:19:55;9.48;;;4.15;;
79284;SDS011;68734;50.452;11.636;2024-01-16T14:22:20;11.30;;;4.35;;
79284;SDS011;68734;50.452;11.636;2024-01-16T14:24:48;7.28;;;4.15;;
79284;SDS011;68734;50.452;11.636;2024-01-16T14:27:16;6.68;;;3.45;;
79284;SDS011;68734;50.452;11.636;2024-01-16T14:29:41;7.82;;;4.05;;
79284;SDS011;68734;50.452;11.636;2024-01-16T14:32:09;4.95;;;3.20;;
79284;SDS011;68734;50.452;11.636;2024-01-16T14:34:35;7.35;;;4.53;;
79284;SDS011;68734;50.452;11.636;2024-01-16T14:37:00;6.72;;;3.78;;
79284;SDS011;68734;50.452;11.636;2024-01-16T14:39:28;8.63;;;4.00;;
79284;SDS011;68734;50.452;11.636;2024-01-16T14:41:58;3.72;;;2.75;;
79284;SDS011;68734;50.452;11.636;2024-01-16T14:44:27;3.70;;;2.72;;
79284;SDS011;68734;50.452;11.636;2024-01-16T14:46:52;4.95;;;2.88;;
79284;SDS011;68734;50.452;11.636;2024-01-16T14:49:19;8.02;;;3.03;;
79284;SDS011;68734;50.452;11.636;2024-01-16T14:51:46;5.07;;;3.53;;
79284;SDS011;68734;50.452;11.636;2024-01-16T14:54:11;7.13;;;3.60;;
79284;SDS011;68734;50.452;11.636;2024-01-16T14:56:36;6.45;;;3.25;;
79284;SDS011;68734;50.452;11.636;2024-01-16T14:59:02;4.47;;;2.92;;
79284;SDS011;68734;50.452;11.636;2024-01-16T15:01:28;6.32;;;3.05;;
79284;SDS011;68734;50.452;11.636;2024-01-16T15:03:54;8.73;;;3.72;;
79284;SDS011;68734;50.452;11.636;2024-01-16T15:06:20;7.13;;;3.63;;